Stolt Ami — 3EAZ5 — position and weather

sailwx.info

Track history (hours):
 
Tides and Currents Weather Stations Pressure Air Temp Water Temp Dewpoint Dewpoint Depression Visibility Wind Speed Wind Dir Waves Ship Positions

Stolt Ami

Last reported at 2015-May-19 00:33 UTC. Time now 2015-May-26 01:39 UTC.
Position S 24°19' W 045°54'.

Length 143 m; draft 9.1 m.

Type: Ship (hazmat cat B). MMSI: 371392514.

Date/timePositionNaut miles runAvg speedWind from/ knotsBaromVisibWave heightAir tempDewpointWater temp
2015-May-19 00:33S 24°19' W 045°54'1211.9
2015-May-18 23:33S 24°13' W 046°05'1212.3
2015-May-18 22:33S 24°07' W 046°16'4 4.0
2015-May-18 21:33S 24°05' W 046°20'0 0.0
2015-May-18 20:21S 24°05' W 046°20'0 0.0
2015-May-18 19:30S 24°05' W 046°20'0 0.0
2015-May-18 18:33S 24°05' W 046°20'0 0.0
2015-May-18 17:30S 24°05' W 046°20'0 0.0
2015-May-18 16:33S 24°05' W 046°20'0 0.0
2015-May-18 15:33S 24°05' W 046°20'0 0.0
2015-May-18 14:30S 24°05' W 046°20'0 0.0
2015-May-18 13:27S 24°05' W 046°20'0 0.0
2015-May-18 12:33S 24°05' W 046°20'0 0.0
2015-May-18 11:28S 24°05' W 046°20'0 0.0
2015-May-18 10:31S 24°05' W 046°20'0 0.0
2015-May-18 09:28S 24°05' W 046°20'0 0.0
2015-May-18 08:31S 24°05' W 046°20'0 0.0
2015-May-18 07:31S 24°05' W 046°20'0 0.1
2015-May-18 06:31S 24°05' W 046°20'0 0.1
2015-May-18 05:31S 24°04' W 046°20'0 0.0
2015-May-18 04:31S 24°05' W 046°20'0 0.0
2015-May-18 03:31S 24°05' W 046°20'0 0.0
2015-May-18 02:31S 24°04' W 046°20'0 0.0
2015-May-18 01:31S 24°04' W 046°20'0 0.0
2015-May-18 00:28S 24°04' W 046°20'0 0.1
2015-May-17 23:31S 24°05' W 046°20'0 0.1
2015-May-17 22:31S 24°04' W 046°20'0 0.0
2015-May-17 21:31S 24°04' W 046°20'0 0.0
2015-May-17 20:31S 24°04' W 046°20'0 0.0
2015-May-17 19:31S 24°04' W 046°20'0 0.0
2015-May-17 18:28S 24°04' W 046°20'0 0.0
2015-May-17 17:31S 24°05' W 046°20'0 0.0
2015-May-17 16:28S 24°05' W 046°20'0 0.0
2015-May-17 15:31S 24°05' W 046°20'0 0.0
2015-May-17 14:31S 24°04' W 046°20'0 0.0
2015-May-17 13:31S 24°04' W 046°20'0 0.0
2015-May-17 12:31S 24°04' W 046°20'0 0.1
2015-May-17 11:31S 24°05' W 046°20'0 0.1
2015-May-17 10:28S 24°05' W 046°20'0 0.0
2015-May-17 09:31S 24°05' W 046°20'0 0.0
2015-May-17 08:31S 24°05' W 046°20'0 0.0
2015-May-17 07:31S 24°05' W 046°20'0 0.0
2015-May-17 06:31S 24°05' W 046°20'0 0.0
2015-May-17 05:31S 24°05' W 046°20'0 0.0
2015-May-17 04:31S 24°05' W 046°20'0 0.0
2015-May-17 03:25S 24°05' W 046°20'0 0.0
2015-May-17 02:28S 24°05' W 046°20'0 0.0
2015-May-17 01:31S 24°05' W 046°20'0 0.0
2015-May-17 00:31S 24°05' W 046°20'0 0.0
2015-May-16 23:19S 24°05' W 046°20'0 0.0
2015-May-16 22:28S 24°05' W 046°20'0 0.0
2015-May-16 21:31S 24°05' W 046°20'0 0.0
2015-May-16 20:31S 24°05' W 046°20'0 0.0
2015-May-16 19:31S 24°05' W 046°20'0 0.0
2015-May-16 18:25S 24°05' W 046°20'0 0.0
2015-May-16 17:28S 24°05' W 046°20'0 0.0
2015-May-16 16:28S 24°05' W 046°20'1 1.5
2015-May-16 15:33S 24°03' W 046°20'1 1.3
2015-May-16 14:32S 24°05' W 046°20'0 0.0
2015-May-16 13:29S 24°05' W 046°20'0 0.0
2015-May-16 12:32S 24°05' W 046°20'0 0.0
2015-May-16 11:29S 24°05' W 046°20'0 0.0
2015-May-16 10:29S 24°05' W 046°20'0 0.0
2015-May-16 09:29S 24°05' W 046°20'0 0.0
2015-May-16 08:29S 24°05' W 046°20'0 0.0
2015-May-16 07:26S 24°05' W 046°20'0 0.0
2015-May-16 06:26S 24°05' W 046°20'0 0.0
2015-May-16 05:32S 24°05' W 046°20'0 0.0
2015-May-16 04:29S 24°05' W 046°20'0 0.0
2015-May-16 03:32S 24°05' W 046°20'0 0.0
2015-May-16 02:32S 24°05' W 046°20'0 0.0
2015-May-16 01:32S 24°05' W 046°20'0 0.0
2015-May-16 00:29S 24°05' W 046°20'0 0.0
2015-May-15 23:29S 24°05' W 046°20'0 0.0
2015-May-15 22:29S 24°05' W 046°20'0 0.0
2015-May-15 20:32S 24°05' W 046°20'0 0.0
2015-May-15 19:29S 24°05' W 046°20'2 2.2
2015-May-15 18:34S 24°03' W 046°21'7 6.6
2015-May-15 17:33S 23°56' W 046°19'1 1.4
2015-May-15 16:33S 23°55' W 046°20'0 0.0
2015-May-15 15:30S 23°55' W 046°20'0 0.0
2015-May-15 14:33S 23°55' W 046°20'0 0.0
2015-May-15 13:33S 23°55' W 046°20'0 0.0
2015-May-15 12:30S 23°55' W 046°20'0 0.0
2015-May-15 11:27S 23°55' W 046°20'0 0.0
2015-May-15 10:33S 23°55' W 046°20'0 0.0
2015-May-15 09:33S 23°55' W 046°20'0 0.0
2015-May-15 08:30S 23°55' W 046°20'0 0.0
2015-May-15 07:30S 23°55' W 046°20'0 0.0
2015-May-15 06:27S 23°55' W 046°20'0 0.0
2015-May-15 05:33S 23°55' W 046°20'0 0.0
2015-May-15 04:33S 23°55' W 046°20'0 0.0
2015-May-15 03:33S 23°55' W 046°20'0 0.0
2015-May-15 02:33S 23°55' W 046°20'0 0.0
2015-May-15 01:33S 23°55' W 046°20'0 0.0
2015-May-15 00:33S 23°55' W 046°20'0 0.0
2015-May-14 23:30S 23°55' W 046°20'0 0.0
2015-May-14 22:33S 23°55' W 046°20'0 0.0
2015-May-14 21:33S 23°55' W 046°20'0 0.0
2015-May-14 20:33S 23°55' W 046°20'0 0.0
2015-May-14 19:33S 23°55' W 046°20'0 0.0
2015-May-14 18:33S 23°55' W 046°20'0 0.0
2015-May-14 17:33S 23°55' W 046°20'0 0.0
2015-May-14 16:33S 23°55' W 046°20'0 0.0
2015-May-14 15:33S 23°55' W 046°20'0 0.0
2015-May-14 14:33S 23°55' W 046°20'0 0.0
2015-May-14 13:30S 23°55' W 046°20'0 0.0
2015-May-14 12:33S 23°55' W 046°20'0 0.0
2015-May-14 11:33S 23°55' W 046°20'0 0.0
2015-May-14 10:33S 23°55' W 046°20'0 0.0
2015-May-14 09:33S 23°55' W 046°20'0 0.0
2015-May-14 08:33S 23°55' W 046°20'0 0.0
2015-May-14 07:33S 23°55' W 046°20'0 0.0
2015-May-14 06:30S 23°55' W 046°20'0 0.0
2015-May-14 05:30S 23°55' W 046°20'0 0.0
2015-May-14 04:33S 23°55' W 046°20'0 0.0
2015-May-14 03:33S 23°55' W 046°20'0 0.0
2015-May-14 02:30S 23°55' W 046°20'0 0.0
2015-May-14 01:33S 23°55' W 046°20'0 0.0
2015-May-14 00:30S 23°55' W 046°20'0 0.0
2015-May-13 23:33S 23°55' W 046°20'0 0.0
2015-May-13 22:33S 23°55' W 046°20'0 0.0
2015-May-13 21:33S 23°55' W 046°20'0 0.0
2015-May-13 20:33S 23°55' W 046°20'0 0.0
2015-May-13 19:30S 23°55' W 046°20'0 0.0
2015-May-13 18:24S 23°55' W 046°20'0 0.0
2015-May-13 17:33S 23°55' W 046°20'0 0.0
2015-May-13 16:27S 23°55' W 046°20'0 0.0
2015-May-13 15:30S 23°55' W 046°20'0 0.0
2015-May-13 14:27S 23°55' W 046°20'0 0.0
2015-May-13 13:33S 23°55' W 046°20'0 0.0
2015-May-13 12:33S 23°55' W 046°20'0 0.0
2015-May-13 11:33S 23°55' W 046°20'0 0.0
2015-May-13 10:33S 23°55' W 046°20'0 0.0
2015-May-13 09:34S 23°55' W 046°20'5 5.1
2015-May-13 08:33S 24°01' W 046°20'7 7.0
2015-May-13 07:33S 24°07' W 046°23'9 9.0
2015-May-13 06:33S 24°16' W 046°24'9 9.5
2015-May-13 05:33S 24°26' W 046°24'1211.9
2015-May-13 04:33S 24°38' W 046°23'2 0.3
2015-May-12 22:21S 24°39' W 046°22'  
Track history (hours):
 
Tides and Currents Weather Stations Pressure Air Temp Water Temp Dewpoint Dewpoint Depression Visibility Wind Speed Wind Dir Waves Ship Positions

Stolt Ami

Last reported at 2015-May-19 00:33 UTC. Time now 2015-May-26 01:39 UTC.
Position S 24°19' W 045°54'.

Length 143 m; draft 9.1 m.

Type: Ship (hazmat cat B). MMSI: 371392514.

Date/timePositionNaut miles runAvg speedWind from/ knotsBaromVisibWave heightAir tempDewpointWater temp
2015-May-19 00:33S 24°19' W 045°54'1211.9
2015-May-18 23:33S 24°13' W 046°05'1212.3
2015-May-18 22:33S 24°07' W 046°16'4 4.0
2015-May-18 21:33S 24°05' W 046°20'0 0.0
2015-May-18 20:21S 24°05' W 046°20'0 0.0
2015-May-18 19:30S 24°05' W 046°20'0 0.0
2015-May-18 18:33S 24°05' W 046°20'0 0.0
2015-May-18 17:30S 24°05' W 046°20'0 0.0
2015-May-18 16:33S 24°05' W 046°20'0 0.0
2015-May-18 15:33S 24°05' W 046°20'0 0.0
2015-May-18 14:30S 24°05' W 046°20'0 0.0
2015-May-18 13:27S 24°05' W 046°20'0 0.0
2015-May-18 12:33S 24°05' W 046°20'0 0.0
2015-May-18 11:28S 24°05' W 046°20'0 0.0
2015-May-18 10:31S 24°05' W 046°20'0 0.0
2015-May-18 09:28S 24°05' W 046°20'0 0.0
2015-May-18 08:31S 24°05' W 046°20'0 0.0
2015-May-18 07:31S 24°05' W 046°20'0 0.1
2015-May-18 06:31S 24°05' W 046°20'0 0.1
2015-May-18 05:31S 24°04' W 046°20'0 0.0
2015-May-18 04:31S 24°05' W 046°20'0 0.0
2015-May-18 03:31S 24°05' W 046°20'0 0.0
2015-May-18 02:31S 24°04' W 046°20'0 0.0
2015-May-18 01:31S 24°04' W 046°20'0 0.0
2015-May-18 00:28S 24°04' W 046°20'0 0.1
2015-May-17 23:31S 24°05' W 046°20'0 0.1
2015-May-17 22:31S 24°04' W 046°20'0 0.0
2015-May-17 21:31S 24°04' W 046°20'0 0.0
2015-May-17 20:31S 24°04' W 046°20'0 0.0
2015-May-17 19:31S 24°04' W 046°20'0 0.0
2015-May-17 18:28S 24°04' W 046°20'0 0.0
2015-May-17 17:31S 24°05' W 046°20'0 0.0
2015-May-17 16:28S 24°05' W 046°20'0 0.0
2015-May-17 15:31S 24°05' W 046°20'0 0.0
2015-May-17 14:31S 24°04' W 046°20'0 0.0
2015-May-17 13:31S 24°04' W 046°20'0 0.0
2015-May-17 12:31S 24°04' W 046°20'0 0.1
2015-May-17 11:31S 24°05' W 046°20'0 0.1
2015-May-17 10:28S 24°05' W 046°20'0 0.0
2015-May-17 09:31S 24°05' W 046°20'0 0.0
2015-May-17 08:31S 24°05' W 046°20'0 0.0
2015-May-17 07:31S 24°05' W 046°20'0 0.0
2015-May-17 06:31S 24°05' W 046°20'0 0.0
2015-May-17 05:31S 24°05' W 046°20'0 0.0
2015-May-17 04:31S 24°05' W 046°20'0 0.0
2015-May-17 03:25S 24°05' W 046°20'0 0.0
2015-May-17 02:28S 24°05' W 046°20'0 0.0
2015-May-17 01:31S 24°05' W 046°20'0 0.0
2015-May-17 00:31S 24°05' W 046°20'0 0.0
2015-May-16 23:19S 24°05' W 046°20'0 0.0
2015-May-16 22:28S 24°05' W 046°20'0 0.0
2015-May-16 21:31S 24°05' W 046°20'0 0.0
2015-May-16 20:31S 24°05' W 046°20'0 0.0
2015-May-16 19:31S 24°05' W 046°20'0 0.0
2015-May-16 18:25S 24°05' W 046°20'0 0.0
2015-May-16 17:28S 24°05' W 046°20'0 0.0
2015-May-16 16:28S 24°05' W 046°20'1 1.5
2015-May-16 15:33S 24°03' W 046°20'1 1.3
2015-May-16 14:32S 24°05' W 046°20'0 0.0
2015-May-16 13:29S 24°05' W 046°20'0 0.0
2015-May-16 12:32S 24°05' W 046°20'0 0.0
2015-May-16 11:29S 24°05' W 046°20'0 0.0
2015-May-16 10:29S 24°05' W 046°20'0 0.0
2015-May-16 09:29S 24°05' W 046°20'0 0.0
2015-May-16 08:29S 24°05' W 046°20'0 0.0
2015-May-16 07:26S 24°05' W 046°20'0 0.0
2015-May-16 06:26S 24°05' W 046°20'0 0.0
2015-May-16 05:32S 24°05' W 046°20'0 0.0
2015-May-16 04:29S 24°05' W 046°20'0 0.0
2015-May-16 03:32S 24°05' W 046°20'0 0.0
2015-May-16 02:32S 24°05' W 046°20'0 0.0
2015-May-16 01:32S 24°05' W 046°20'0 0.0
2015-May-16 00:29S 24°05' W 046°20'0 0.0
2015-May-15 23:29S 24°05' W 046°20'0 0.0
2015-May-15 22:29S 24°05' W 046°20'0 0.0
2015-May-15 20:32S 24°05' W 046°20'0 0.0
2015-May-15 19:29S 24°05' W 046°20'2 2.2
2015-May-15 18:34S 24°03' W 046°21'7 6.6
2015-May-15 17:33S 23°56' W 046°19'1 1.4
2015-May-15 16:33S 23°55' W 046°20'0 0.0
2015-May-15 15:30S 23°55' W 046°20'0 0.0
2015-May-15 14:33S 23°55' W 046°20'0 0.0
2015-May-15 13:33S 23°55' W 046°20'0 0.0
2015-May-15 12:30S 23°55' W 046°20'0 0.0
2015-May-15 11:27S 23°55' W 046°20'0 0.0
2015-May-15 10:33S 23°55' W 046°20'0 0.0
2015-May-15 09:33S 23°55' W 046°20'0 0.0
2015-May-15 08:30S 23°55' W 046°20'0 0.0
2015-May-15 07:30S 23°55' W 046°20'0 0.0
2015-May-15 06:27S 23°55' W 046°20'0 0.0
2015-May-15 05:33S 23°55' W 046°20'0 0.0
2015-May-15 04:33S 23°55' W 046°20'0 0.0
2015-May-15 03:33S 23°55' W 046°20'0 0.0
2015-May-15 02:33S 23°55' W 046°20'0 0.0
2015-May-15 01:33S 23°55' W 046°20'0 0.0
2015-May-15 00:33S 23°55' W 046°20'0 0.0
2015-May-14 23:30S 23°55' W 046°20'0 0.0
2015-May-14 22:33S 23°55' W 046°20'0 0.0
2015-May-14 21:33S 23°55' W 046°20'0 0.0
2015-May-14 20:33S 23°55' W 046°20'0 0.0
2015-May-14 19:33S 23°55' W 046°20'0 0.0
2015-May-14 18:33S 23°55' W 046°20'0 0.0
2015-May-14 17:33S 23°55' W 046°20'0 0.0
2015-May-14 16:33S 23°55' W 046°20'0 0.0
2015-May-14 15:33S 23°55' W 046°20'0 0.0
2015-May-14 14:33S 23°55' W 046°20'0 0.0
2015-May-14 13:30S 23°55' W 046°20'0 0.0
2015-May-14 12:33S 23°55' W 046°20'0 0.0
2015-May-14 11:33S 23°55' W 046°20'0 0.0
2015-May-14 10:33S 23°55' W 046°20'0 0.0
2015-May-14 09:33S 23°55' W 046°20'0 0.0
2015-May-14 08:33S 23°55' W 046°20'0 0.0
2015-May-14 07:33S 23°55' W 046°20'0 0.0
2015-May-14 06:30S 23°55' W 046°20'0 0.0
2015-May-14 05:30S 23°55' W 046°20'0 0.0
2015-May-14 04:33S 23°55' W 046°20'0 0.0
2015-May-14 03:33S 23°55' W 046°20'0 0.0
2015-May-14 02:30S 23°55' W 046°20'0 0.0
2015-May-14 01:33S 23°55' W 046°20'0 0.0
2015-May-14 00:30S 23°55' W 046°20'0 0.0
2015-May-13 23:33S 23°55' W 046°20'0 0.0
2015-May-13 22:33S 23°55' W 046°20'0 0.0
2015-May-13 21:33S 23°55' W 046°20'0 0.0
2015-May-13 20:33S 23°55' W 046°20'0 0.0
2015-May-13 19:30S 23°55' W 046°20'0 0.0
2015-May-13 18:24S 23°55' W 046°20'0 0.0
2015-May-13 17:33S 23°55' W 046°20'0 0.0
2015-May-13 16:27S 23°55' W 046°20'0 0.0
2015-May-13 15:30S 23°55' W 046°20'0 0.0
2015-May-13 14:27S 23°55' W 046°20'0 0.0
2015-May-13 13:33S 23°55' W 046°20'0 0.0
2015-May-13 12:33S 23°55' W 046°20'0 0.0
2015-May-13 11:33S 23°55' W 046°20'0 0.0
2015-May-13 10:33S 23°55' W 046°20'0 0.0
2015-May-13 09:34S 23°55' W 046°20'5 5.1
2015-May-13 08:33S 24°01' W 046°20'7 7.0
2015-May-13 07:33S 24°07' W 046°23'9 9.0
2015-May-13 06:33S 24°16' W 046°24'9 9.5
2015-May-13 05:33S 24°26' W 046°24'1211.9
2015-May-13 04:33S 24°38' W 046°23'2 0.3
2015-May-12 22:21S 24°39' W 046°22'  

Dump ship's entire track history